NFTF/TBU METAR and TAF weather

Enter ICAO airport designator
Station Type Date Time Source
NFTF METAR 2021/09/16 21:00 UTC NOAA

NFTF 162100Z 04007KT 9999 FEW012 SCT016TCU 26/24 Q1019


Station Type Date Time Source
NFTF Decoded METAR 2021/09/16 21:00 UTC NOAA

Fua'Amotu, Tonga (NFTF) 21-14S 175-09W 41M
Sep 16, 2021 - 05:00 PM EDT / 2021.09.16 2100 UTC
Wind: from the NE (040 degrees) at 8 MPH (7 KT):0
Visibility: greater than 7 mile(s):0
Sky conditions: partly cloudy
Weather: Towering cumulus clouds observed
Temperature: 78 F (26 C)
Dew Point: 75 F (24 C)
Relative Humidity: 88%
Pressure (altimeter): 30.09 in. Hg (1019 hPa)
ob: NFTF 162100Z 04007KT 9999 FEW012 SCT016TCU 26/24 Q1019
cycle: 21

Station Type Date Time Source
NFTF TAF 2021/09/16 18:12 UTC NOAA

TAF NFTF 161710Z 1618/1718 06008KT 9999 SCT016

Example: see airport list